sensor_id;sensor_type;location;lat;lon;timestamp;temperature;humidity
61323;DHT22;47203;48.428;11.974;2022-07-10T00:01:06;20.80;59.80
61323;DHT22;47203;48.428;11.974;2022-07-10T00:03:14;20.80;60.00
61323;DHT22;47203;48.428;11.974;2022-07-10T00:05:20;20.80;60.50
61323;DHT22;47203;48.428;11.974;2022-07-10T00:07:25;20.70;60.20
61323;DHT22;47203;48.428;11.974;2022-07-10T00:09:31;20.70;60.30
61323;DHT22;47203;48.428;11.974;2022-07-10T00:11:36;20.70;60.40
61323;DHT22;47203;48.428;11.974;2022-07-10T00:13:41;20.70;60.50
61323;DHT22;47203;48.428;11.974;2022-07-10T00:15:46;20.70;60.50
61323;DHT22;47203;48.428;11.974;2022-07-10T00:17:52;20.70;60.80
61323;DHT22;47203;48.428;11.974;2022-07-10T00:19:59;20.60;60.90
61323;DHT22;47203;48.428;11.974;2022-07-10T00:22:05;20.60;61.40
61323;DHT22;47203;48.428;11.974;2022-07-10T00:24:10;20.60;60.90
61323;DHT22;47203;48.428;11.974;2022-07-10T00:26:15;20.60;61.00
61323;DHT22;47203;48.428;11.974;2022-07-10T00:28:20;20.60;61.00
61323;DHT22;47203;48.428;11.974;2022-07-10T00:30:26;20.60;61.40
61323;DHT22;47203;48.428;11.974;2022-07-10T00:32:32;20.60;61.40
61323;DHT22;47203;48.428;11.974;2022-07-10T00:34:37;20.60;61.00
61323;DHT22;47203;48.428;11.974;2022-07-10T00:36:45;20.60;61.30
61323;DHT22;47203;48.428;11.974;2022-07-10T00:38:50;20.60;61.60
61323;DHT22;47203;48.428;11.974;2022-07-10T00:40:55;20.60;61.30
61323;DHT22;47203;48.428;11.974;2022-07-10T00:43:01;20.60;61.50
61323;DHT22;47203;48.428;11.974;2022-07-10T00:45:07;20.50;61.50
61323;DHT22;47203;48.428;11.974;2022-07-10T00:47:13;20.50;61.80
61323;DHT22;47203;48.428;11.974;2022-07-10T00:49:21;20.50;61.70
61323;DHT22;47203;48.428;11.974;2022-07-10T00:51:28;20.50;61.80
61323;DHT22;47203;48.428;11.974;2022-07-10T00:53:38;20.50;62.00
61323;DHT22;47203;48.428;11.974;2022-07-10T00:55:44;20.40;62.40
61323;DHT22;47203;48.428;11.974;2022-07-10T00:57:49;20.40;62.40
61323;DHT22;47203;48.428;11.974;2022-07-10T00:59:55;20.40;62.40
61323;DHT22;47203;48.428;11.974;2022-07-10T01:02:00;20.40;62.50
61323;DHT22;47203;48.428;11.974;2022-07-10T01:04:06;20.40;62.10
61323;DHT22;47203;48.428;11.974;2022-07-10T01:06:11;20.30;62.20
61323;DHT22;47203;48.428;11.974;2022-07-10T01:08:17;20.30;62.20
61323;DHT22;47203;48.428;11.974;2022-07-10T01:10:25;20.30;62.30
61323;DHT22;47203;48.428;11.974;2022-07-10T01:12:30;20.30;62.50
61323;DHT22;47203;48.428;11.974;2022-07-10T01:14:36;20.30;62.30
61323;DHT22;47203;48.428;11.974;2022-07-10T01:16:42;20.30;62.60
61323;DHT22;47203;48.428;11.974;2022-07-10T01:18:48;20.20;62.50
61323;DHT22;47203;48.428;11.974;2022-07-10T01:20:56;20.20;62.40
61323;DHT22;47203;48.428;11.974;2022-07-10T01:23:02;20.20;62.80
61323;DHT22;47203;48.428;11.974;2022-07-10T01:25:07;20.20;62.50
61323;DHT22;47203;48.428;11.974;2022-07-10T01:27:13;20.20;62.30
61323;DHT22;47203;48.428;11.974;2022-07-10T01:29:19;20.10;62.40
61323;DHT22;47203;48.428;11.974;2022-07-10T01:31:26;20.10;62.50
61323;DHT22;47203;48.428;11.974;2022-07-10T01:33:32;20.00;62.70
61323;DHT22;47203;48.428;11.974;2022-07-10T01:35:38;20.00;62.80
61323;DHT22;47203;48.428;11.974;2022-07-10T01:37:46;19.90;62.80
61323;DHT22;47203;48.428;11.974;2022-07-10T01:39:51;19.90;63.30
61323;DHT22;47203;48.428;11.974;2022-07-10T01:41:56;19.80;63.10
61323;DHT22;47203;48.428;11.974;2022-07-10T01:44:01;19.80;63.30
61323;DHT22;47203;48.428;11.974;2022-07-10T01:46:07;19.70;63.40
61323;DHT22;47203;48.428;11.974;2022-07-10T01:48:13;19.70;63.60
61323;DHT22;47203;48.428;11.974;2022-07-10T01:50:18;19.60;63.50
61323;DHT22;47203;48.428;11.974;2022-07-10T01:52:23;19.60;63.80
61323;DHT22;47203;48.428;11.974;2022-07-10T01:54:31;19.50;64.00
61323;DHT22;47203;48.428;11.974;2022-07-10T01:56:36;19.50;64.20
61323;DHT22;47203;48.428;11.974;2022-07-10T01:58:41;19.50;64.10
61323;DHT22;47203;48.428;11.974;2022-07-10T02:00:46;19.50;64.30
61323;DHT22;47203;48.428;11.974;2022-07-10T02:02:52;19.40;64.20
61323;DHT22;47203;48.428;11.974;2022-07-10T02:05:09;19.40;64.50
61323;DHT22;47203;48.428;11.974;2022-07-10T02:07:17;19.40;64.40
61323;DHT22;47203;48.428;11.974;2022-07-10T02:09:24;19.40;64.60
61323;DHT22;47203;48.428;11.974;2022-07-10T02:11:32;19.30;65.10
61323;DHT22;47203;48.428;11.974;2022-07-10T02:13:37;19.40;65.00
61323;DHT22;47203;48.428;11.974;2022-07-10T02:15:42;19.30;64.80
61323;DHT22;47203;48.428;11.974;2022-07-10T02:17:47;19.30;64.80
61323;DHT22;47203;48.428;11.974;2022-07-10T02:19:52;19.30;65.10
61323;DHT22;47203;48.428;11.974;2022-07-10T02:21:58;19.30;65.20
61323;DHT22;47203;48.428;11.974;2022-07-10T02:24:04;19.30;65.10
61323;DHT22;47203;48.428;11.974;2022-07-10T02:26:09;19.30;65.20
61323;DHT22;47203;48.428;11.974;2022-07-10T02:28:17;19.30;65.30
61323;DHT22;47203;48.428;11.974;2022-07-10T02:30:22;19.30;65.50
61323;DHT22;47203;48.428;11.974;2022-07-10T02:32:28;19.30;65.30
61323;DHT22;47203;48.428;11.974;2022-07-10T02:34:33;19.30;65.10
61323;DHT22;47203;48.428;11.974;2022-07-10T02:36:38;19.30;65.20
61323;DHT22;47203;48.428;11.974;2022-07-10T02:38:43;19.30;65.10
61323;DHT22;47203;48.428;11.974;2022-07-10T02:40:49;19.30;65.10
61323;DHT22;47203;48.428;11.974;2022-07-10T02:42:54;19.30;65.10
61323;DHT22;47203;48.428;11.974;2022-07-10T02:45:02;19.30;65.30
61323;DHT22;47203;48.428;11.974;2022-07-10T02:47:07;19.30;65.60
61323;DHT22;47203;48.428;11.974;2022-07-10T02:49:13;19.30;65.60
61323;DHT22;47203;48.428;11.974;2022-07-10T02:51:18;19.30;65.40
61323;DHT22;47203;48.428;11.974;2022-07-10T02:53:23;19.40;65.20
61323;DHT22;47203;48.428;11.974;2022-07-10T02:55:28;19.40;65.20
61323;DHT22;47203;48.428;11.974;2022-07-10T02:57:33;19.40;65.30
61323;DHT22;47203;48.428;11.974;2022-07-10T02:59:39;19.40;65.20
61323;DHT22;47203;48.428;11.974;2022-07-10T03:01:46;19.40;65.10
61323;DHT22;47203;48.428;11.974;2022-07-10T03:03:51;19.40;65.10
61323;DHT22;47203;48.428;11.974;2022-07-10T03:05:57;19.40;64.80
61323;DHT22;47203;48.428;11.974;2022-07-10T03:08:03;19.40;64.80
61323;DHT22;47203;48.428;11.974;2022-07-10T03:10:09;19.30;64.90
61323;DHT22;47203;48.428;11.974;2022-07-10T03:12:14;19.30;64.90
61323;DHT22;47203;48.428;11.974;2022-07-10T03:14:19;19.30;65.10
61323;DHT22;47203;48.428;11.974;2022-07-10T03:16:24;19.30;65.10
61323;DHT22;47203;48.428;11.974;2022-07-10T03:18:32;19.20;65.10
61323;DHT22;47203;48.428;11.974;2022-07-10T03:20:38;19.20;65.50
61323;DHT22;47203;48.428;11.974;2022-07-10T03:22:43;19.20;65.50
61323;DHT22;47203;48.428;11.974;2022-07-10T03:24:48;19.20;65.50
61323;DHT22;47203;48.428;11.974;2022-07-10T03:26:53;19.10;65.60
61323;DHT22;47203;48.428;11.974;2022-07-10T03:28:58;19.10;65.70
61323;DHT22;47203;48.428;11.974;2022-07-10T03:31:04;19.10;65.50
61323;DHT22;47203;48.428;11.974;2022-07-10T03:33:09;19.10;65.50
61323;DHT22;47203;48.428;11.974;2022-07-10T03:35:17;19.10;65.50
61323;DHT22;47203;48.428;11.974;2022-07-10T03:37:22;19.10;65.80
61323;DHT22;47203;48.428;11.974;2022-07-10T03:39:28;19.10;65.80
61323;DHT22;47203;48.428;11.974;2022-07-10T03:41:33;19.10;65.70
61323;DHT22;47203;48.428;11.974;2022-07-10T03:43:38;19.10;66.00
61323;DHT22;47203;48.428;11.974;2022-07-10T03:45:43;19.10;65.80
61323;DHT22;47203;48.428;11.974;2022-07-10T03:47:48;19.00;65.50
61323;DHT22;47203;48.428;11.974;2022-07-10T03:49:53;19.10;65.60
61323;DHT22;47203;48.428;11.974;2022-07-10T03:52:02;19.10;65.50
61323;DHT22;47203;48.428;11.974;2022-07-10T03:54:08;19.00;65.80
61323;DHT22;47203;48.428;11.974;2022-07-10T03:56:13;19.00;65.60
61323;DHT22;47203;48.428;11.974;2022-07-10T03:58:38;19.00;65.50
61323;DHT22;47203;48.428;11.974;2022-07-10T04:00:41;19.00;65.30
61323;DHT22;47203;48.428;11.974;2022-07-10T04:02:47;19.00;65.30
61323;DHT22;47203;48.428;11.974;2022-07-10T04:04:52;19.00;65.40
61323;DHT22;47203;48.428;11.974;2022-07-10T04:07:00;19.00;65.40
61323;DHT22;47203;48.428;11.974;2022-07-10T04:09:06;18.90;65.50
61323;DHT22;47203;48.428;11.974;2022-07-10T04:11:11;18.90;65.60
61323;DHT22;47203;48.428;11.974;2022-07-10T04:13:16;18.90;65.70
61323;DHT22;47203;48.428;11.974;2022-07-10T04:15:22;18.80;65.60
61323;DHT22;47203;48.428;11.974;2022-07-10T04:17:27;18.90;65.70
61323;DHT22;47203;48.428;11.974;2022-07-10T04:19:34;18.80;65.70
61323;DHT22;47203;48.428;11.974;2022-07-10T04:21:40;18.80;65.80
61323;DHT22;47203;48.428;11.974;2022-07-10T04:23:47;18.80;65.90
61323;DHT22;47203;48.428;11.974;2022-07-10T04:25:53;18.80;66.20
61323;DHT22;47203;48.428;11.974;2022-07-10T04:27:58;18.80;66.00
61323;DHT22;47203;48.428;11.974;2022-07-10T04:30:04;18.80;66.10
61323;DHT22;47203;48.428;11.974;2022-07-10T04:32:10;18.90;66.20
61323;DHT22;47203;48.428;11.974;2022-07-10T04:34:16;18.90;66.20
61323;DHT22;47203;48.428;11.974;2022-07-10T04:36:21;18.90;66.20
61323;DHT22;47203;48.428;11.974;2022-07-10T04:38:26;18.90;66.40
61323;DHT22;47203;48.428;11.974;2022-07-10T04:40:36;19.00;66.50
61323;DHT22;47203;48.428;11.974;2022-07-10T04:42:41;19.00;66.50
61323;DHT22;47203;48.428;11.974;2022-07-10T04:44:46;19.00;66.30
61323;DHT22;47203;48.428;11.974;2022-07-10T04:46:51;19.10;66.40
61323;DHT22;47203;48.428;11.974;2022-07-10T04:48:57;19.10;66.40
61323;DHT22;47203;48.428;11.974;2022-07-10T04:51:02;19.10;66.50
61323;DHT22;47203;48.428;11.974;2022-07-10T04:53:07;19.20;66.40
61323;DHT22;47203;48.428;11.974;2022-07-10T04:55:12;19.30;66.30
61323;DHT22;47203;48.428;11.974;2022-07-10T04:57:20;19.30;66.10
61323;DHT22;47203;48.428;11.974;2022-07-10T04:59:25;19.30;65.90
61323;DHT22;47203;48.428;11.974;2022-07-10T05:01:31;19.40;65.90
61323;DHT22;47203;48.428;11.974;2022-07-10T05:03:36;19.40;65.80
61323;DHT22;47203;48.428;11.974;2022-07-10T05:05:41;19.50;65.60
61323;DHT22;47203;48.428;11.974;2022-07-10T05:07:46;19.60;65.30
61323;DHT22;47203;48.428;11.974;2022-07-10T05:09:51;19.60;65.30
61323;DHT22;47203;48.428;11.974;2022-07-10T05:11:56;19.60;65.10
61323;DHT22;47203;48.428;11.974;2022-07-10T05:14:04;19.60;65.10
61323;DHT22;47203;48.428;11.974;2022-07-10T05:16:09;19.70;65.20
61323;DHT22;47203;48.428;11.974;2022-07-10T05:18:21;19.70;65.10
61323;DHT22;47203;48.428;11.974;2022-07-10T05:20:26;19.70;64.90
61323;DHT22;47203;48.428;11.974;2022-07-10T05:22:32;19.80;65.00
61323;DHT22;47203;48.428;11.974;2022-07-10T05:24:37;19.80;64.90
61323;DHT22;47203;48.428;11.974;2022-07-10T05:26:42;19.90;65.00
61323;DHT22;47203;48.428;11.974;2022-07-10T05:28:47;19.90;64.70
61323;DHT22;47203;48.428;11.974;2022-07-10T05:30:55;19.90;64.70
61323;DHT22;47203;48.428;11.974;2022-07-10T05:33:00;19.90;64.70
61323;DHT22;47203;48.428;11.974;2022-07-10T05:35:07;19.90;64.70
61323;DHT22;47203;48.428;11.974;2022-07-10T05:37:13;19.90;64.70
61323;DHT22;47203;48.428;11.974;2022-07-10T05:39:18;19.90;64.50
61323;DHT22;47203;48.428;11.974;2022-07-10T05:41:24;19.90;64.50
61323;DHT22;47203;48.428;11.974;2022-07-10T05:43:29;19.90;64.70
61323;DHT22;47203;48.428;11.974;2022-07-10T05:45:35;19.90;64.70
61323;DHT22;47203;48.428;11.974;2022-07-10T05:47:46;20.00;64.70
61323;DHT22;47203;48.428;11.974;2022-07-10T05:49:51;20.00;64.70
61323;DHT22;47203;48.428;11.974;2022-07-10T05:51:56;20.00;64.60
61323;DHT22;47203;48.428;11.974;2022-07-10T05:54:01;20.00;64.40
61323;DHT22;47203;48.428;11.974;2022-07-10T05:56:07;20.00;64.40
61323;DHT22;47203;48.428;11.974;2022-07-10T05:58:12;20.10;64.30
61323;DHT22;47203;48.428;11.974;2022-07-10T06:00:17;20.10;64.40
61323;DHT22;47203;48.428;11.974;2022-07-10T06:02:22;20.10;64.00
61323;DHT22;47203;48.428;11.974;2022-07-10T06:04:30;20.10;63.80
61323;DHT22;47203;48.428;11.974;2022-07-10T06:06:35;20.10;63.50
61323;DHT22;47203;48.428;11.974;2022-07-10T06:08:41;20.10;63.70
61323;DHT22;47203;48.428;11.974;2022-07-10T06:10:46;20.10;63.50
61323;DHT22;47203;48.428;11.974;2022-07-10T06:12:51;20.10;63.50
61323;DHT22;47203;48.428;11.974;2022-07-10T06:14:57;20.10;63.50
61323;DHT22;47203;48.428;11.974;2022-07-10T06:17:02;20.10;63.50
61323;DHT22;47203;48.428;11.974;2022-07-10T06:19:08;20.20;63.80
61323;DHT22;47203;48.428;11.974;2022-07-10T06:21:16;20.20;63.80
61323;DHT22;47203;48.428;11.974;2022-07-10T06:23:25;20.20;63.80
61323;DHT22;47203;48.428;11.974;2022-07-10T06:25:30;20.30;64.00
61323;DHT22;47203;48.428;11.974;2022-07-10T06:27:35;20.40;64.00
61323;DHT22;47203;48.428;11.974;2022-07-10T06:29:40;20.40;63.80
61323;DHT22;47203;48.428;11.974;2022-07-10T06:31:46;20.50;63.60
61323;DHT22;47203;48.428;11.974;2022-07-10T06:33:51;20.60;63.20
61323;DHT22;47203;48.428;11.974;2022-07-10T06:35:56;20.70;63.20
61323;DHT22;47203;48.428;11.974;2022-07-10T06:38:04;20.80;63.10
61323;DHT22;47203;48.428;11.974;2022-07-10T06:40:12;20.80;63.00
61323;DHT22;47203;48.428;11.974;2022-07-10T06:42:18;20.90;62.80
61323;DHT22;47203;48.428;11.974;2022-07-10T06:44:25;21.00;62.70
61323;DHT22;47203;48.428;11.974;2022-07-10T06:46:31;21.10;62.50
61323;DHT22;47203;48.428;11.974;2022-07-10T06:48:37;21.20;62.40
61323;DHT22;47203;48.428;11.974;2022-07-10T06:50:42;21.20;62.20
61323;DHT22;47203;48.428;11.974;2022-07-10T06:52:47;21.30;62.00
61323;DHT22;47203;48.428;11.974;2022-07-10T06:54:56;21.30;61.30
61323;DHT22;47203;48.428;11.974;2022-07-10T06:57:03;21.40;61.30
61323;DHT22;47203;48.428;11.974;2022-07-10T06:59:10;21.40;61.40
61323;DHT22;47203;48.428;11.974;2022-07-10T07:01:15;21.50;61.20
61323;DHT22;47203;48.428;11.974;2022-07-10T07:03:20;21.60;60.90
61323;DHT22;47203;48.428;11.974;2022-07-10T07:05:25;21.70;60.90
61323;DHT22;47203;48.428;11.974;2022-07-10T07:07:31;21.80;61.00
61323;DHT22;47203;48.428;11.974;2022-07-10T07:09:36;21.90;60.60
61323;DHT22;47203;48.428;11.974;2022-07-10T07:11:43;22.00;60.30
61323;DHT22;47203;48.428;11.974;2022-07-10T07:13:49;22.10;59.50
61323;DHT22;47203;48.428;11.974;2022-07-10T07:15:54;22.10;59.50
61323;DHT22;47203;48.428;11.974;2022-07-10T07:18:02;22.10;58.90
61323;DHT22;47203;48.428;11.974;2022-07-10T07:20:14;22.10;58.70
61323;DHT22;47203;48.428;11.974;2022-07-10T07:22:32;22.20;58.70
61323;DHT22;47203;48.428;11.974;2022-07-10T07:24:50;22.10;58.40
61323;DHT22;47203;48.428;11.974;2022-07-10T07:26:58;22.10;58.50
61323;DHT22;47203;48.428;11.974;2022-07-10T07:29:03;22.10;58.00
61323;DHT22;47203;48.428;11.974;2022-07-10T07:31:08;22.10;58.20
61323;DHT22;47203;48.428;11.974;2022-07-10T07:33:16;22.00;58.00
61323;DHT22;47203;48.428;11.974;2022-07-10T07:35:21;22.00;58.10
61323;DHT22;47203;48.428;11.974;2022-07-10T07:37:36;22.00;58.20
61323;DHT22;47203;48.428;11.974;2022-07-10T07:39:43;22.00;58.90
61323;DHT22;47203;48.428;11.974;2022-07-10T07:41:48;22.00;58.40
61323;DHT22;47203;48.428;11.974;2022-07-10T07:43:56;22.10;58.60
61323;DHT22;47203;48.428;11.974;2022-07-10T07:46:01;22.10;58.70
61323;DHT22;47203;48.428;11.974;2022-07-10T07:48:06;22.20;58.50
61323;DHT22;47203;48.428;11.974;2022-07-10T07:50:12;22.20;58.60
61323;DHT22;47203;48.428;11.974;2022-07-10T07:52:17;22.40;58.20
61323;DHT22;47203;48.428;11.974;2022-07-10T07:54:23;22.40;57.90
61323;DHT22;47203;48.428;11.974;2022-07-10T07:56:28;22.40;57.80
61323;DHT22;47203;48.428;11.974;2022-07-10T07:58:33;22.50;57.70
61323;DHT22;47203;48.428;11.974;2022-07-10T08:00:42;22.50;57.30
61323;DHT22;47203;48.428;11.974;2022-07-10T08:02:47;22.60;57.00
61323;DHT22;47203;48.428;11.974;2022-07-10T08:04:53;22.60;56.60
61323;DHT22;47203;48.428;11.974;2022-07-10T08:06:58;22.60;56.60
61323;DHT22;47203;48.428;11.974;2022-07-10T08:09:04;22.70;56.60
61323;DHT22;47203;48.428;11.974;2022-07-10T08:11:09;22.60;56.60
61323;DHT22;47203;48.428;11.974;2022-07-10T08:13:14;22.60;56.30
61323;DHT22;47203;48.428;11.974;2022-07-10T08:15:20;22.60;55.70
61323;DHT22;47203;48.428;11.974;2022-07-10T08:17:29;22.70;55.80
61323;DHT22;47203;48.428;11.974;2022-07-10T08:19:34;22.60;55.80
61323;DHT22;47203;48.428;11.974;2022-07-10T08:21:39;22.60;56.30
61323;DHT22;47203;48.428;11.974;2022-07-10T08:23:45;22.70;55.90
61323;DHT22;47203;48.428;11.974;2022-07-10T08:25:51;22.70;56.00
61323;DHT22;47203;48.428;11.974;2022-07-10T08:28:00;22.80;55.20
61323;DHT22;47203;48.428;11.974;2022-07-10T08:30:09;22.90;54.50
61323;DHT22;47203;48.428;11.974;2022-07-10T08:32:16;22.90;54.60
61323;DHT22;47203;48.428;11.974;2022-07-10T08:34:25;23.00;54.80
61323;DHT22;47203;48.428;11.974;2022-07-10T08:36:30;23.10;53.80
61323;DHT22;47203;48.428;11.974;2022-07-10T08:38:50;23.10;53.70
61323;DHT22;47203;48.428;11.974;2022-07-10T08:40:56;23.10;53.20
61323;DHT22;47203;48.428;11.974;2022-07-10T08:43:04;23.10;52.70
61323;DHT22;47203;48.428;11.974;2022-07-10T08:45:10;23.10;53.20
61323;DHT22;47203;48.428;11.974;2022-07-10T08:47:21;23.20;53.40
61323;DHT22;47203;48.428;11.974;2022-07-10T08:49:31;23.30;53.20
61323;DHT22;47203;48.428;11.974;2022-07-10T08:51:41;23.40;52.80
61323;DHT22;47203;48.428;11.974;2022-07-10T08:54:00;23.50;52.90
61323;DHT22;47203;48.428;11.974;2022-07-10T08:56:06;23.60;51.40
61323;DHT22;47203;48.428;11.974;2022-07-10T08:58:12;23.70;51.60
61323;DHT22;47203;48.428;11.974;2022-07-10T09:00:19;23.70;51.00
61323;DHT22;47203;48.428;11.974;2022-07-10T09:02:25;23.80;51.20
61323;DHT22;47203;48.428;11.974;2022-07-10T09:04:33;23.80;50.60
61323;DHT22;47203;48.428;11.974;2022-07-10T09:06:38;23.90;49.30
61323;DHT22;47203;48.428;11.974;2022-07-10T09:08:59;23.90;49.40
61323;DHT22;47203;48.428;11.974;2022-07-10T09:11:15;23.90;49.40
61323;DHT22;47203;48.428;11.974;2022-07-10T09:13:21;23.90;49.80
61323;DHT22;47203;48.428;11.974;2022-07-10T09:15:29;23.90;50.40
61323;DHT22;47203;48.428;11.974;2022-07-10T09:17:49;24.00;49.60
61323;DHT22;47203;48.428;11.974;2022-07-10T09:19:58;24.00;48.70
61323;DHT22;47203;48.428;11.974;2022-07-10T09:22:05;24.10;48.40
61323;DHT22;47203;48.428;11.974;2022-07-10T09:24:11;24.10;48.30
61323;DHT22;47203;48.428;11.974;2022-07-10T09:26:19;24.10;48.50
61323;DHT22;47203;48.428;11.974;2022-07-10T09:28:24;24.10;49.20
61323;DHT22;47203;48.428;11.974;2022-07-10T09:30:33;24.10;48.30
61323;DHT22;47203;48.428;11.974;2022-07-10T09:32:42;24.20;47.90
61323;DHT22;47203;48.428;11.974;2022-07-10T09:34:49;24.20;47.10
61323;DHT22;47203;48.428;11.974;2022-07-10T09:37:26;24.20;46.50
61323;DHT22;47203;48.428;11.974;2022-07-10T09:39:32;24.20;46.50
61323;DHT22;47203;48.428;11.974;2022-07-10T09:41:38;24.20;46.20
61323;DHT22;47203;48.428;11.974;2022-07-10T09:43:43;24.20;46.70
61323;DHT22;47203;48.428;11.974;2022-07-10T09:45:49;24.30;46.30
61323;DHT22;47203;48.428;11.974;2022-07-10T09:47:58;24.40;46.00
61323;DHT22;47203;48.428;11.974;2022-07-10T09:50:19;24.40;45.70
61323;DHT22;47203;48.428;11.974;2022-07-10T09:52:29;24.40;46.00
61323;DHT22;47203;48.428;11.974;2022-07-10T09:54:36;24.40;46.00
61323;DHT22;47203;48.428;11.974;2022-07-10T09:56:43;24.50;46.20
61323;DHT22;47203;48.428;11.974;2022-07-10T09:58:50;24.50;46.20
61323;DHT22;47203;48.428;11.974;2022-07-10T10:00:57;24.60;46.20
61323;DHT22;47203;48.428;11.974;2022-07-10T10:03:06;24.70;45.70
61323;DHT22;47203;48.428;11.974;2022-07-10T10:05:13;24.90;45.30
61323;DHT22;47203;48.428;11.974;2022-07-10T10:07:20;25.10;44.70
61323;DHT22;47203;48.428;11.974;2022-07-10T10:09:32;25.30;45.50
61323;DHT22;47203;48.428;11.974;2022-07-10T10:11:44;25.40;44.90
61323;DHT22;47203;48.428;11.974;2022-07-10T10:13:51;25.50;44.30
61323;DHT22;47203;48.428;11.974;2022-07-10T10:15:57;25.60;44.10
61323;DHT22;47203;48.428;11.974;2022-07-10T10:18:03;25.50;43.20
61323;DHT22;47203;48.428;11.974;2022-07-10T10:20:11;25.50;43.90
61323;DHT22;47203;48.428;11.974;2022-07-10T10:22:29;25.60;43.40
61323;DHT22;47203;48.428;11.974;2022-07-10T10:24:40;25.60;43.10
61323;DHT22;47203;48.428;11.974;2022-07-10T10:26:47;25.60;42.70
61323;DHT22;47203;48.428;11.974;2022-07-10T10:28:54;25.70;43.90
61323;DHT22;47203;48.428;11.974;2022-07-10T10:31:02;25.70;43.10
61323;DHT22;47203;48.428;11.974;2022-07-10T10:35:47;25.60;42.80
61323;DHT22;47203;48.428;11.974;2022-07-10T10:37:54;25.50;42.50
61323;DHT22;47203;48.428;11.974;2022-07-10T10:40:04;25.50;42.50
61323;DHT22;47203;48.428;11.974;2022-07-10T10:42:31;25.40;42.60
61323;DHT22;47203;48.428;11.974;2022-07-10T10:44:37;25.40;43.00
61323;DHT22;47203;48.428;11.974;2022-07-10T10:46:58;25.40;42.80
61323;DHT22;47203;48.428;11.974;2022-07-10T10:49:11;25.50;42.60
61323;DHT22;47203;48.428;11.974;2022-07-10T10:51:18;25.60;42.80
61323;DHT22;47203;48.428;11.974;2022-07-10T10:53:24;25.70;42.30
61323;DHT22;47203;48.428;11.974;2022-07-10T10:55:33;25.70;42.10
61323;DHT22;47203;48.428;11.974;2022-07-10T10:57:39;25.60;41.20
61323;DHT22;47203;48.428;11.974;2022-07-10T10:59:54;25.60;41.70
61323;DHT22;47203;48.428;11.974;2022-07-10T11:02:21;25.50;41.90
61323;DHT22;47203;48.428;11.974;2022-07-10T11:04:27;25.60;42.20
61323;DHT22;47203;48.428;11.974;2022-07-10T11:06:39;25.60;42.50
61323;DHT22;47203;48.428;11.974;2022-07-10T11:08:44;25.70;41.50
61323;DHT22;47203;48.428;11.974;2022-07-10T11:10:52;25.70;41.90
61323;DHT22;47203;48.428;11.974;2022-07-10T11:12:58;25.60;41.10
61323;DHT22;47203;48.428;11.974;2022-07-10T11:15:07;25.60;41.50
61323;DHT22;47203;48.428;11.974;2022-07-10T11:17:18;25.60;41.90
61323;DHT22;47203;48.428;11.974;2022-07-10T11:19:31;25.60;41.50
61323;DHT22;47203;48.428;11.974;2022-07-10T11:21:46;25.70;43.00
61323;DHT22;47203;48.428;11.974;2022-07-10T11:23:56;25.80;41.70
61323;DHT22;47203;48.428;11.974;2022-07-10T11:26:21;25.90;41.20
61323;DHT22;47203;48.428;11.974;2022-07-10T11:28:50;26.00;40.70
61323;DHT22;47203;48.428;11.974;2022-07-10T11:30:56;26.00;39.60
61323;DHT22;47203;48.428;11.974;2022-07-10T11:33:04;26.00;39.60
61323;DHT22;47203;48.428;11.974;2022-07-10T11:35:11;25.90;39.10
61323;DHT22;47203;48.428;11.974;2022-07-10T11:37:17;25.70;39.00
61323;DHT22;47203;48.428;11.974;2022-07-10T11:39:22;25.60;39.30
61323;DHT22;47203;48.428;11.974;2022-07-10T11:41:31;25.50;39.90
61323;DHT22;47203;48.428;11.974;2022-07-10T11:43:45;25.30;39.80
61323;DHT22;47203;48.428;11.974;2022-07-10T11:45:52;25.30;39.20
61323;DHT22;47203;48.428;11.974;2022-07-10T11:48:01;25.20;39.50
61323;DHT22;47203;48.428;11.974;2022-07-10T11:50:09;25.20;39.20
61323;DHT22;47203;48.428;11.974;2022-07-10T11:52:15;25.20;39.50
61323;DHT22;47203;48.428;11.974;2022-07-10T11:54:20;25.10;39.40
61323;DHT22;47203;48.428;11.974;2022-07-10T11:56:27;25.10;39.30
61323;DHT22;47203;48.428;11.974;2022-07-10T11:58:36;25.10;39.60
61323;DHT22;47203;48.428;11.974;2022-07-10T12:00:43;25.00;39.40
61323;DHT22;47203;48.428;11.974;2022-07-10T12:02:49;25.00;39.40
61323;DHT22;47203;48.428;11.974;2022-07-10T12:04:56;24.90;39.40
61323;DHT22;47203;48.428;11.974;2022-07-10T12:07:03;24.90;39.60
61323;DHT22;47203;48.428;11.974;2022-07-10T12:09:11;24.90;39.20
61323;DHT22;47203;48.428;11.974;2022-07-10T12:11:19;24.90;39.30
61323;DHT22;47203;48.428;11.974;2022-07-10T12:13:28;24.90;39.00
61323;DHT22;47203;48.428;11.974;2022-07-10T12:15:34;25.00;39.20
61323;DHT22;47203;48.428;11.974;2022-07-10T12:17:50;25.10;39.10
61323;DHT22;47203;48.428;11.974;2022-07-10T12:19:55;25.20;38.60
61323;DHT22;47203;48.428;11.974;2022-07-10T12:22:02;25.40;38.20
61323;DHT22;47203;48.428;11.974;2022-07-10T12:24:10;25.40;38.40
61323;DHT22;47203;48.428;11.974;2022-07-10T12:26:16;25.50;38.10
61323;DHT22;47203;48.428;11.974;2022-07-10T12:28:21;25.60;38.30
61323;DHT22;47203;48.428;11.974;2022-07-10T12:30:40;25.70;37.00
61323;DHT22;47203;48.428;11.974;2022-07-10T12:32:46;25.80;37.70
61323;DHT22;47203;48.428;11.974;2022-07-10T12:34:51;25.80;37.70
61323;DHT22;47203;48.428;11.974;2022-07-10T12:37:07;25.90;37.10
61323;DHT22;47203;48.428;11.974;2022-07-10T12:39:14;25.80;37.20
61323;DHT22;47203;48.428;11.974;2022-07-10T12:41:21;25.80;37.00
61323;DHT22;47203;48.428;11.974;2022-07-10T12:43:30;25.80;37.10
61323;DHT22;47203;48.428;11.974;2022-07-10T12:45:39;25.70;37.80
61323;DHT22;47203;48.428;11.974;2022-07-10T12:47:45;25.70;37.10
61323;DHT22;47203;48.428;11.974;2022-07-10T12:49:54;25.70;37.50
61323;DHT22;47203;48.428;11.974;2022-07-10T12:52:00;25.60;37.50
61323;DHT22;47203;48.428;11.974;2022-07-10T12:54:32;25.50;37.90
61323;DHT22;47203;48.428;11.974;2022-07-10T12:56:38;25.60;37.30
61323;DHT22;47203;48.428;11.974;2022-07-10T12:58:43;25.60;37.70
61323;DHT22;47203;48.428;11.974;2022-07-10T13:00:51;25.70;38.20
61323;DHT22;47203;48.428;11.974;2022-07-10T13:02:58;25.70;37.20
61323;DHT22;47203;48.428;11.974;2022-07-10T13:05:06;25.70;36.90
61323;DHT22;47203;48.428;11.974;2022-07-10T13:07:14;25.80;37.20
61323;DHT22;47203;48.428;11.974;2022-07-10T13:09:21;25.80;37.10
61323;DHT22;47203;48.428;11.974;2022-07-10T13:11:28;25.80;36.70
61323;DHT22;47203;48.428;11.974;2022-07-10T13:13:34;25.90;37.60